Weather History for Audubon, IA

Change the Weather History Date:

Saturday, March 15, 2014

  Actual Average Record
Temperature  
Mean Temperature 35 °F -  
Max Temperature 46 °F 46 °F 78 °F (2003)
Min Temperature 24 °F 26 °F 0 °F (1949)
Degree Days  
Heating Degree Days 30    
Moisture  
Dew Point 24 °F    
Average Humidity 66    
Maximum Humidity 86    
Minimum Humidity 37    
Precipitation  
Precipitation 0.00 in - - ()
Sea Level Pressure  
Sea Level Pressure 30.01 in    
Wind  
Wind Speed 9 mph (ENE)    
Max Wind Speed 25 mph    
Max Gust Speed 33 mph    
Visibility 9 miles    
Events Snow    
Averages and records for this station are not official NWS values.
T = Trace of Precipitation, MM = Missing Value Source: NWS Daily Summary

Daily Weather History Graph

Daily Weather History Graph

Search for Another Location

Airport:

Trip Planner

Search our weather history database for the weather conditions in past years. The results will help you decide how hot, cold, wet, or windy it might be!

Date:

Astronomy

Mar. 15, 2014 Rise Set
Actual Time 7:31 AM CDT 7:26 PM CDT
Civil Twilight 7:03 AM CDT 7:54 PM CDT
Nautical Twilight 6:31 AM CDT 8:26 PM CDT
Astronomical Twilight 5:58 AM CDT 8:59 PM CDT
Moon 6:46 PM CDT (3/15) 6:44 AM CDT (3/15)
Length of Visible Light 12h 50m
Length of Day
11h 54m
Waxing Gibbous, 99% of the Moon is Illuminated
Mar 15
Waxing Gibbous
Mar 16
Full
Mar 23
Last Quarter
Mar 30
New
Apr 7
First Quarter

Hourly Weather History & Observations

Time (CDT) Temp. Windchill Dew Point Humidity Pressure Visibility Wind Dir Wind Speed Gust Speed Precip Events Conditions
12:15 AM 26.6 °F - 19.4 °F 74% 29.96 in 10.0 mi Calm Calm - N/A   Clear
12:35 AM 26.6 °F - 19.4 °F 74% 29.96 in 10.0 mi Calm Calm - N/A   Clear
12:55 AM 24.8 °F - 19.4 °F 80% 29.96 in 10.0 mi Calm Calm - N/A   Clear
1:15 AM 24.8 °F - 19.4 °F 80% 29.96 in 10.0 mi Calm Calm - N/A   Clear
1:35 AM 24.8 °F - 17.6 °F 74% 29.96 in 10.0 mi Calm Calm - N/A   Clear
1:55 AM 24.8 °F - 19.4 °F 80% 29.95 in 10.0 mi Calm Calm - N/A   Clear
2:15 AM 24.8 °F - 17.6 °F 74% 29.96 in 10.0 mi Calm Calm - N/A   Clear
2:35 AM 24.8 °F - 19.4 °F 80% 29.95 in 10.0 mi Calm Calm - N/A   Clear
2:55 AM 24.8 °F - 19.4 °F 80% 29.96 in 10.0 mi Calm Calm - N/A   Clear
3:15 AM 24.8 °F - 19.4 °F 80% 29.96 in 10.0 mi Calm Calm - N/A   Clear
3:35 AM 28.4 °F - 23.0 °F 80% 29.96 in 10.0 mi Calm Calm - N/A   Clear
3:55 AM 30.2 °F - 26.6 °F 86% 29.96 in 10.0 mi Calm Calm - N/A   Clear
4:15 AM 30.2 °F 26.7 °F 26.6 °F 86% 29.95 in 10.0 mi East 3.5 mph - N/A   Clear
4:35 AM 30.2 °F 25.4 °F 26.6 °F 86% 29.95 in 10.0 mi East 4.6 mph - N/A   Clear
4:55 AM 32.0 °F 28.7 °F 26.6 °F 80% 29.95 in 10.0 mi ESE 3.5 mph - N/A   Clear
5:15 AM 32.0 °F 26.4 °F 26.6 °F 80% 29.95 in 10.0 mi ESE 5.8 mph - N/A   Clear
5:35 AM 32.0 °F 27.5 °F 26.6 °F 80% 29.94 in 10.0 mi ESE 4.6 mph - N/A   Clear
5:55 AM 32.0 °F 25.6 °F 26.6 °F 80% 29.94 in 10.0 mi SE 6.9 mph - N/A   Clear
6:15 AM 32.0 °F 25.6 °F 26.6 °F 80% 29.92 in 10.0 mi ESE 6.9 mph - N/A   Clear
6:30 AM 33.8 °F 27.7 °F 26.6 °F 75% 29.92 in 10.0 mi ESE 6.9 mph - N/A   Clear
6:55 AM 33.8 °F 28.6 °F 26.6 °F 75% 29.94 in 10.0 mi East 5.8 mph - N/A   Clear
7:15 AM 33.8 °F 27.7 °F 26.6 °F 75% 29.93 in 10.0 mi East 6.9 mph - N/A   Clear
7:35 AM 33.8 °F 28.6 °F 26.6 °F 75% 29.93 in 10.0 mi ESE 5.8 mph - N/A   Clear
7:55 AM 33.8 °F 27.7 °F 26.6 °F 75% 29.93 in 10.0 mi ESE 6.9 mph - N/A   Clear
8:15 AM 33.8 °F 27.7 °F 26.6 °F 75% 29.94 in 10.0 mi ESE 6.9 mph - N/A   Scattered Clouds
8:35 AM 33.8 °F 28.6 °F 26.6 °F 75% 29.95 in 10.0 mi ESE 5.8 mph - N/A   Scattered Clouds
8:55 AM 35.6 °F 28.6 °F 26.6 °F 70% 29.95 in 10.0 mi ESE 9.2 mph - N/A   Clear
9:15 AM 35.6 °F 28.6 °F 26.6 °F 70% 29.96 in 10.0 mi ESE 9.2 mph - N/A   Clear
9:35 AM 37.4 °F 29.8 °F 26.6 °F 65% 29.97 in 10.0 mi East 11.5 mph 18.4 mph N/A   Scattered Clouds
9:55 AM 39.2 °F 32.0 °F 24.8 °F 56% 29.98 in 10.0 mi ESE 11.5 mph - N/A   Scattered Clouds
10:15 AM 39.2 °F 29.8 °F 24.8 °F 56% 29.97 in 10.0 mi East 18.4 mph 23.0 mph N/A   Scattered Clouds
10:35 AM 39.2 °F 30.5 °F 21.2 °F 49% 29.98 in 10.0 mi East 16.1 mph 21.9 mph N/A   Clear
10:55 AM 41.0 °F 32.8 °F 21.2 °F 45% 29.97 in 10.0 mi East 16.1 mph 20.7 mph N/A   Clear
11:15 AM 39.2 °F 30.5 °F 19.4 °F 45% 29.97 in 10.0 mi East 16.1 mph 24.2 mph N/A   Clear
11:35 AM 41.0 °F 31.9 °F 21.2 °F 45% 29.97 in 10.0 mi East 19.6 mph - N/A   Clear
11:55 AM 42.8 °F 33.8 °F 21.2 °F 42% 29.97 in 10.0 mi East 21.9 mph 26.5 mph N/A   Clear
12:15 PM 44.6 °F 36.6 °F 21.2 °F 39% 29.97 in 10.0 mi East 19.6 mph 25.3 mph N/A   Clear
12:35 PM 44.6 °F 36.4 °F 21.2 °F 39% 29.97 in 10.0 mi East 20.7 mph 26.5 mph N/A   Clear
12:55 PM 44.6 °F 36.4 °F 21.2 °F 39% 29.97 in 10.0 mi East 20.7 mph 26.5 mph N/A   Clear
1:15 PM 46.4 °F 39.0 °F 21.2 °F 37% 29.97 in 10.0 mi East 19.6 mph - N/A   Clear
1:35 PM 46.4 °F 38.5 °F 23.0 °F 40% 29.98 in 10.0 mi ENE 21.9 mph - N/A   Clear
1:55 PM 46.4 °F 39.0 °F 23.0 °F 40% 29.98 in 10.0 mi East 19.6 mph 26.5 mph N/A   Clear
2:15 PM 46.4 °F 39.0 °F 24.8 °F 43% 29.97 in 10.0 mi East 19.6 mph 26.5 mph N/A   Clear
2:35 PM 46.4 °F 39.0 °F 24.8 °F 43% 29.97 in 10.0 mi East 19.6 mph 27.6 mph N/A   Clear
2:55 PM 46.4 °F 39.2 °F 24.8 °F 43% 29.98 in 10.0 mi ENE 18.4 mph 24.2 mph N/A   Clear
3:15 PM 46.4 °F 38.7 °F 24.8 °F 43% 29.98 in 10.0 mi ENE 20.7 mph 25.3 mph N/A   Clear
3:35 PM 46.4 °F 39.0 °F 24.8 °F 43% 29.98 in 10.0 mi ENE 19.6 mph 27.6 mph N/A   Clear
3:55 PM 46.4 °F 39.0 °F 24.8 °F 43% 29.98 in 10.0 mi ENE 19.6 mph 27.6 mph N/A   Clear
4:15 PM 46.4 °F 38.3 °F 26.6 °F 46% 29.99 in 10.0 mi NE 23.0 mph 27.6 mph N/A   Clear
4:35 PM 44.6 °F 35.5 °F 26.6 °F 49% 30.00 in 10.0 mi NE 25.3 mph 32.2 mph N/A   Clear
4:55 PM 44.6 °F 35.5 °F 26.6 °F 49% 30.00 in 10.0 mi ENE 25.3 mph 31.1 mph N/A   Clear
5:15 PM 44.6 °F 36.4 °F 26.6 °F 49% 30.01 in 10.0 mi NE 20.7 mph 31.1 mph N/A   Clear
5:35 PM 42.8 °F 33.8 °F 26.6 °F 53% 30.03 in 10.0 mi NE 21.9 mph 29.9 mph N/A   Clear
5:55 PM 39.2 °F 29.0 °F 23.0 °F 52% 30.04 in 10.0 mi NNE 21.9 mph 32.2 mph N/A   Scattered Clouds
6:15 PM 37.4 °F 26.6 °F 24.8 °F 60% 30.06 in 10.0 mi NE 21.9 mph 29.9 mph N/A   Scattered Clouds
6:35 PM 35.6 °F 24.0 °F 24.8 °F 65% 30.06 in 10.0 mi NE 23.0 mph 31.1 mph N/A   Scattered Clouds
6:55 PM 35.6 °F 24.5 °F 24.8 °F 65% 30.08 in 10.0 mi NE 20.7 mph 31.1 mph N/A   Mostly Cloudy
7:15 PM 33.8 °F 21.6 °F 26.6 °F 75% 30.09 in 10.0 mi NE 23.0 mph 31.1 mph N/A   Scattered Clouds
7:35 PM 33.8 °F 22.2 °F 24.8 °F 70% 30.11 in 10.0 mi NE 20.7 mph 28.8 mph N/A   Mostly Cloudy
7:55 PM 32.0 °F 19.2 °F 24.8 °F 75% 30.11 in 10.0 mi NE 23.0 mph 32.2 mph N/A   Scattered Clouds
8:15 PM 32.0 °F 19.8 °F 24.8 °F 75% 30.12 in 10.0 mi NE 20.7 mph 27.6 mph N/A   Clear
8:35 PM 30.2 °F 18.9 °F 24.8 °F 80% 30.15 in 10.0 mi NNE 16.1 mph 33.4 mph N/A   Scattered Clouds
8:55 PM 30.2 °F 18.9 °F 24.8 °F 80% 30.17 in 10.0 mi NNE 16.1 mph 28.8 mph N/A   Mostly Cloudy
9:15 PM 30.2 °F 18.1 °F 24.8 °F 80% 30.18 in 5.0 mi NNE 18.4 mph 27.6 mph N/A Snow Light Snow
9:35 PM 30.2 °F 18.1 °F 24.8 °F 80% 30.19 in 3.0 mi NNE 18.4 mph 24.2 mph N/A Snow Light Snow
9:55 PM 28.4 °F 16.6 °F 24.8 °F 86% 30.21 in 2.5 mi NNE 16.1 mph 26.5 mph N/A Snow Light Snow
10:15 PM 28.4 °F 15.8 °F 23.0 °F 80% 30.21 in 5.0 mi NNE 18.4 mph 21.9 mph N/A Snow Light Snow
10:35 PM 28.4 °F 16.6 °F 23.0 °F 80% 30.22 in 3.0 mi NNE 16.1 mph 26.5 mph N/A Snow Light Snow
10:55 PM 28.4 °F 15.4 °F 23.0 °F 80% 30.23 in 4.0 mi NNE 19.6 mph 26.5 mph N/A Snow Light Snow
11:15 PM 28.4 °F 17.0 °F 23.0 °F 80% 30.24 in 3.0 mi NNE 15.0 mph 21.9 mph N/A Snow Light Snow
11:35 PM 28.4 °F 16.2 °F 21.2 °F 74% 30.24 in 4.0 mi NNE 17.3 mph 25.3 mph N/A Snow Light Snow
11:55 PM 28.4 °F 16.2 °F 21.2 °F 74% 30.24 in 5.0 mi NNE 17.3 mph 26.5 mph N/A Snow Light Snow